sensor_id;sensor_type;location;lat;lon;timestamp;pressure;altitude;pressure_sealevel;temperature
71897;BMP280;59767;51.344;12.362;2023-07-13T00:00:14;164709.28;;;23.32
71897;BMP280;59767;51.344;12.362;2023-07-13T00:03:21;164692.16;;;23.26
71897;BMP280;59767;51.344;12.362;2023-07-13T00:06:26;164680.38;;;23.21
71897;BMP280;59767;51.344;12.362;2023-07-13T00:09:34;164679.03;;;23.21
71897;BMP280;59767;51.344;12.362;2023-07-13T00:12:39;164672.50;;;23.18
71897;BMP280;59767;51.344;12.362;2023-07-13T00:15:45;164657.97;;;23.13
71897;BMP280;59767;51.344;12.362;2023-07-13T00:18:49;164668.53;;;23.17
71897;BMP280;59767;51.344;12.362;2023-07-13T00:21:54;164677.75;;;23.20
71897;BMP280;59767;51.344;12.362;2023-07-13T00:24:59;164672.50;;;23.18
71897;BMP280;59767;51.344;12.362;2023-07-13T00:28:04;164672.50;;;23.18
71897;BMP280;59767;51.344;12.362;2023-07-13T00:31:09;164679.03;;;23.21
71897;BMP280;59767;51.344;12.362;2023-07-13T00:34:14;164682.94;;;23.22
71897;BMP280;59767;51.344;12.362;2023-07-13T00:37:18;164668.53;;;23.17
71897;BMP280;59767;51.344;12.362;2023-07-13T00:40:23;164650.09;;;23.10
71897;BMP280;59767;51.344;12.362;2023-07-13T00:43:28;164655.34;;;23.12
71897;BMP280;59767;51.344;12.362;2023-07-13T00:46:33;164639.59;;;23.06
71897;BMP280;59767;51.344;12.362;2023-07-13T00:49:39;164638.25;;;23.05
71897;BMP280;59767;51.344;12.362;2023-07-13T00:52:46;164639.59;;;23.06
71897;BMP280;59767;51.344;12.362;2023-07-13T00:55:52;164621.19;;;22.99
71897;BMP280;59767;51.344;12.362;2023-07-13T00:58:57;164625.09;;;23.00
71897;BMP280;59767;51.344;12.362;2023-07-13T01:02:03;164600.13;;;22.91
71897;BMP280;59767;51.344;12.362;2023-07-13T01:05:19;164586.94;;;22.86
71897;BMP280;59767;51.344;12.362;2023-07-13T01:08:23;164556.78;;;22.74
71897;BMP280;59767;51.344;12.362;2023-07-13T01:11:27;164535.75;;;22.67
71897;BMP280;59767;51.344;12.362;2023-07-13T01:14:31;164522.56;;;22.62
71897;BMP280;59767;51.344;12.362;2023-07-13T01:17:35;164509.41;;;22.57
71897;BMP280;59767;51.344;12.362;2023-07-13T01:20:40;164480.47;;;22.46
71897;BMP280;59767;51.344;12.362;2023-07-13T01:23:45;164467.38;;;22.41
71897;BMP280;59767;51.344;12.362;2023-07-13T01:26:49;164460.78;;;22.38
71897;BMP280;59767;51.344;12.362;2023-07-13T01:29:53;164456.88;;;22.37
71897;BMP280;59767;51.344;12.362;2023-07-13T01:33:07;164435.81;;;22.29
71897;BMP280;59767;51.344;12.362;2023-07-13T01:36:11;164413.44;;;22.20
71897;BMP280;59767;51.344;12.362;2023-07-13T01:39:16;164402.91;;;22.16
71897;BMP280;59767;51.344;12.362;2023-07-13T01:42:20;164410.81;;;22.19
71897;BMP280;59767;51.344;12.362;2023-07-13T01:45:24;164397.69;;;22.14
71897;BMP280;59767;51.344;12.362;2023-07-13T01:48:28;164393.75;;;22.13
71897;BMP280;59767;51.344;12.362;2023-07-13T01:51:32;164387.16;;;22.10
71897;BMP280;59767;51.344;12.362;2023-07-13T01:54:36;164393.75;;;22.13
71897;BMP280;59767;51.344;12.362;2023-07-13T01:57:41;164374.00;;;22.05
71897;BMP280;59767;51.344;12.362;2023-07-13T02:00:48;164356.97;;;21.99
71897;BMP280;59767;51.344;12.362;2023-07-13T02:03:52;164325.38;;;21.87
71897;BMP280;59767;51.344;12.362;2023-07-13T02:06:56;164306.97;;;21.80
71897;BMP280;59767;51.344;12.362;2023-07-13T02:10:00;164295.13;;;21.75
71897;BMP280;59767;51.344;12.362;2023-07-13T02:13:06;164288.59;;;21.73
71897;BMP280;59767;51.344;12.362;2023-07-13T02:16:10;164258.38;;;21.61
71897;BMP280;59767;51.344;12.362;2023-07-13T02:19:15;164249.09;;;21.58
71897;BMP280;59767;51.344;12.362;2023-07-13T02:22:20;164224.16;;;21.48
71897;BMP280;59767;51.344;12.362;2023-07-13T02:25:25;164225.50;;;21.49
71897;BMP280;59767;51.344;12.362;2023-07-13T02:28:30;164212.34;;;21.44
71897;BMP280;59767;51.344;12.362;2023-07-13T02:31:34;164204.47;;;21.41
71897;BMP280;59767;51.344;12.362;2023-07-13T02:34:41;164182.09;;;21.32
71897;BMP280;59767;51.344;12.362;2023-07-13T02:37:46;164151.94;;;21.21
71897;BMP280;59767;51.344;12.362;2023-07-13T02:40:50;164137.44;;;21.15
71897;BMP280;59767;51.344;12.362;2023-07-13T02:43:54;164132.19;;;21.13
71897;BMP280;59767;51.344;12.362;2023-07-13T02:47:06;164111.16;;;21.05
71897;BMP280;59767;51.344;12.362;2023-07-13T02:50:11;164100.66;;;21.01
71897;BMP280;59767;51.344;12.362;2023-07-13T02:53:15;164098.03;;;21.00
71897;BMP280;59767;51.344;12.362;2023-07-13T02:56:26;164074.34;;;20.91
71897;BMP280;59767;51.344;12.362;2023-07-13T02:59:30;164044.16;;;20.80
71897;BMP280;59767;51.344;12.362;2023-07-13T03:02:35;164024.44;;;20.72
71897;BMP280;59767;51.344;12.362;2023-07-13T03:05:41;164029.72;;;20.74
71897;BMP280;59767;51.344;12.362;2023-07-13T03:08:46;164016.56;;;20.69
71897;BMP280;59767;51.344;12.362;2023-07-13T03:11:53;164002.13;;;20.64
71897;BMP280;59767;51.344;12.362;2023-07-13T03:14:57;164003.41;;;20.64
71897;BMP280;59767;51.344;12.362;2023-07-13T03:18:02;163981.09;;;20.56
71897;BMP280;59767;51.344;12.362;2023-07-13T03:21:06;163960.09;;;20.48
71897;BMP280;59767;51.344;12.362;2023-07-13T03:24:10;163943.03;;;20.41
71897;BMP280;59767;51.344;12.362;2023-07-13T03:27:16;163932.50;;;20.37
71897;BMP280;59767;51.344;12.362;2023-07-13T03:30:21;163929.88;;;20.36
71897;BMP280;59767;51.344;12.362;2023-07-13T03:33:25;163937.72;;;20.39
71897;BMP280;59767;51.344;12.362;2023-07-13T03:36:30;163954.78;;;20.46
71897;BMP280;59767;51.344;12.362;2023-07-13T03:39:34;163937.72;;;20.39
71897;BMP280;59767;51.344;12.362;2023-07-13T03:42:38;163925.91;;;20.35
71897;BMP280;59767;51.344;12.362;2023-07-13T03:45:42;163922.00;;;20.33
71897;BMP280;59767;51.344;12.362;2023-07-13T03:48:47;163894.41;;;20.23
71897;BMP280;59767;51.344;12.362;2023-07-13T03:51:51;163882.53;;;20.18
71897;BMP280;59767;51.344;12.362;2023-07-13T03:54:57;163860.25;;;20.10
71897;BMP280;59767;51.344;12.362;2023-07-13T03:58:39;163861.53;;;20.10
71897;BMP280;59767;51.344;12.362;2023-07-13T04:01:44;163861.53;;;20.10
71897;BMP280;59767;51.344;12.362;2023-07-13T04:04:48;163851.03;;;20.06
71897;BMP280;59767;51.344;12.362;2023-07-13T04:07:53;163856.34;;;20.08
71897;BMP280;59767;51.344;12.362;2023-07-13T04:10:57;163853.66;;;20.07
71897;BMP280;59767;51.344;12.362;2023-07-13T04:14:02;163856.34;;;20.08
71897;BMP280;59767;51.344;12.362;2023-07-13T04:17:06;163848.41;;;20.05
71897;BMP280;59767;51.344;12.362;2023-07-13T04:20:10;163862.88;;;20.11
71897;BMP280;59767;51.344;12.362;2023-07-13T04:23:18;163869.44;;;20.13
71897;BMP280;59767;51.344;12.362;2023-07-13T04:26:22;163878.59;;;20.17
71897;BMP280;59767;51.344;12.362;2023-07-13T04:29:27;163893.06;;;20.22
71897;BMP280;59767;51.344;12.362;2023-07-13T04:32:31;163908.84;;;20.28
71897;BMP280;59767;51.344;12.362;2023-07-13T04:35:36;163914.09;;;20.30
71897;BMP280;59767;51.344;12.362;2023-07-13T04:38:40;163906.22;;;20.27
71897;BMP280;59767;51.344;12.362;2023-07-13T04:41:45;163924.56;;;20.34
71897;BMP280;59767;51.344;12.362;2023-07-13T04:44:50;163927.25;;;20.35
71897;BMP280;59767;51.344;12.362;2023-07-13T04:47:54;163918.06;;;20.32
71897;BMP280;59767;51.344;12.362;2023-07-13T04:51:02;163914.09;;;20.30
71897;BMP280;59767;51.344;12.362;2023-07-13T04:54:06;163891.75;;;20.22
71897;BMP280;59767;51.344;12.362;2023-07-13T04:57:11;163900.94;;;20.25
71897;BMP280;59767;51.344;12.362;2023-07-13T05:00:16;163936.41;;;20.39
71897;BMP280;59767;51.344;12.362;2023-07-13T05:03:20;163932.50;;;20.37
71897;BMP280;59767;51.344;12.362;2023-07-13T05:06:24;163936.41;;;20.39
71897;BMP280;59767;51.344;12.362;2023-07-13T05:09:28;163956.13;;;20.46
71897;BMP280;59767;51.344;12.362;2023-07-13T05:12:32;163964.03;;;20.49
71897;BMP280;59767;51.344;12.362;2023-07-13T05:15:36;163973.25;;;20.53
71897;BMP280;59767;51.344;12.362;2023-07-13T05:18:41;163971.91;;;20.52
71897;BMP280;59767;51.344;12.362;2023-07-13T05:21:46;164000.78;;;20.63
71897;BMP280;59767;51.344;12.362;2023-07-13T05:24:50;164019.19;;;20.70
71897;BMP280;59767;51.344;12.362;2023-07-13T05:27:55;164053.31;;;20.83
71897;BMP280;59767;51.344;12.362;2023-07-13T05:30:59;164090.19;;;20.97
71897;BMP280;59767;51.344;12.362;2023-07-13T05:34:03;164109.88;;;21.05
71897;BMP280;59767;51.344;12.362;2023-07-13T05:37:08;164133.53;;;21.14
71897;BMP280;59767;51.344;12.362;2023-07-13T05:40:12;164167.66;;;21.27
71897;BMP280;59767;51.344;12.362;2023-07-13T05:43:16;164187.41;;;21.34
71897;BMP280;59767;51.344;12.362;2023-07-13T05:46:20;164213.69;;;21.44
71897;BMP280;59767;51.344;12.362;2023-07-13T05:49:24;164243.91;;;21.56
71897;BMP280;59767;51.344;12.362;2023-07-13T05:52:29;164243.91;;;21.56
71897;BMP280;59767;51.344;12.362;2023-07-13T05:55:33;164268.91;;;21.65
71897;BMP280;59767;51.344;12.362;2023-07-13T05:58:37;164278.06;;;21.69
71897;BMP280;59767;51.344;12.362;2023-07-13T06:01:42;164325.38;;;21.87
71897;BMP280;59767;51.344;12.362;2023-07-13T06:04:49;164372.69;;;22.05
71897;BMP280;59767;51.344;12.362;2023-07-13T06:07:56;164389.84;;;22.11
71897;BMP280;59767;51.344;12.362;2023-07-13T06:14:07;164408.19;;;22.18
71897;BMP280;59767;51.344;12.362;2023-07-13T06:17:11;164427.91;;;22.26
71897;BMP280;59767;51.344;12.362;2023-07-13T06:20:16;164467.38;;;22.41
71897;BMP280;59767;51.344;12.362;2023-07-13T06:23:21;164505.50;;;22.55
71897;BMP280;59767;51.344;12.362;2023-07-13T06:26:26;164501.53;;;22.54
71897;BMP280;59767;51.344;12.362;2023-07-13T06:29:30;164505.50;;;22.55
71897;BMP280;59767;51.344;12.362;2023-07-13T06:32:35;164538.31;;;22.67
71897;BMP280;59767;51.344;12.362;2023-07-13T06:35:43;164554.13;;;22.73
71897;BMP280;59767;51.344;12.362;2023-07-13T06:38:47;164606.72;;;22.93
71897;BMP280;59767;51.344;12.362;2023-07-13T06:41:51;164634.34;;;23.04
71897;BMP280;59767;51.344;12.362;2023-07-13T06:44:55;164660.66;;;23.14
71897;BMP280;59767;51.344;12.362;2023-07-13T06:47:59;164660.66;;;23.14
71897;BMP280;59767;51.344;12.362;2023-07-13T06:51:03;164673.72;;;23.19
71897;BMP280;59767;51.344;12.362;2023-07-13T06:54:07;164663.28;;;23.15
71897;BMP280;59767;51.344;12.362;2023-07-13T06:57:11;164698.75;;;23.28
71897;BMP280;59767;51.344;12.362;2023-07-13T07:00:16;164726.38;;;23.39
71897;BMP280;59767;51.344;12.362;2023-07-13T07:03:20;164756.66;;;23.50
71897;BMP280;59767;51.344;12.362;2023-07-13T07:06:25;164836.81;;;23.81
71897;BMP280;59767;51.344;12.362;2023-07-13T07:09:29;164873.69;;;23.95
71897;BMP280;59767;51.344;12.362;2023-07-13T07:12:35;164836.81;;;23.81
71897;BMP280;59767;51.344;12.362;2023-07-13T07:15:39;164801.34;;;23.67
71897;BMP280;59767;51.344;12.362;2023-07-13T07:18:44;164757.94;;;23.51
71897;BMP280;59767;51.344;12.362;2023-07-13T07:21:48;164743.47;;;23.45
71897;BMP280;59767;51.344;12.362;2023-07-13T07:24:55;164725.06;;;23.38
71897;BMP280;59767;51.344;12.362;2023-07-13T07:27:59;164775.03;;;23.57
71897;BMP280;59767;51.344;12.362;2023-07-13T07:31:07;164861.81;;;23.90
71897;BMP280;59767;51.344;12.362;2023-07-13T07:34:14;164970.97;;;24.32
71897;BMP280;59767;51.344;12.362;2023-07-13T07:37:18;165111.78;;;24.85
71897;BMP280;59767;51.344;12.362;2023-07-13T07:40:26;165265.75;;;25.43
71897;BMP280;59767;51.344;12.362;2023-07-13T07:43:33;165414.47;;;26.00
71897;BMP280;59767;51.344;12.362;2023-07-13T07:46:38;165469.72;;;26.21
71897;BMP280;59767;51.344;12.362;2023-07-13T07:49:44;165411.84;;;25.99
71897;BMP280;59767;51.344;12.362;2023-07-13T07:52:48;165280.22;;;25.49
71897;BMP280;59767;51.344;12.362;2023-07-13T07:55:52;165131.56;;;24.92
71897;BMP280;59767;51.344;12.362;2023-07-13T07:58:59;165068.41;;;24.69
71897;BMP280;59767;51.344;12.362;2023-07-13T08:02:09;165080.19;;;24.73
71897;BMP280;59767;51.344;12.362;2023-07-13T08:05:37;165469.72;;;26.21
71897;BMP280;59767;51.344;12.362;2023-07-13T08:08:59;164497.66;;;28.21
71897;BMP280;59767;51.344;12.362;2023-07-13T08:12:04;135895.59;;;30.27
71897;BMP280;59767;51.344;12.362;2023-07-13T08:15:15;120570.00;;;31.43
71897;BMP280;59767;51.344;12.362;2023-07-13T08:18:20;112595.09;;;32.11
71897;BMP280;59767;51.344;12.362;2023-07-13T08:21:24;110270.19;;;32.31
71897;BMP280;59767;51.344;12.362;2023-07-13T08:24:28;107945.69;;;32.51
71897;BMP280;59767;51.344;12.362;2023-07-13T08:27:33;105624.78;;;32.73
71897;BMP280;59767;51.344;12.362;2023-07-13T08:30:37;102640.66;;;33.01
71897;BMP280;59767;51.344;12.362;2023-07-13T08:33:41;110602.94;;;32.29
71897;BMP280;59767;51.344;12.362;2023-07-13T08:36:46;120908.63;;;31.44
71897;BMP280;59767;51.344;12.362;2023-07-13T08:39:50;140568.91;;;29.93
71897;BMP280;59767;51.344;12.362;2023-07-13T08:42:57;141237.38;;;29.89
71897;BMP280;59767;51.344;12.362;2023-07-13T08:46:13;148249.31;;;29.38
71897;BMP280;59767;51.344;12.362;2023-07-13T08:49:21;134565.91;;;30.39
71897;BMP280;59767;51.344;12.362;2023-07-13T08:52:35;145917.94;;;29.58
71897;BMP280;59767;51.344;12.362;2023-07-13T08:55:41;152933.47;;;29.06
71897;BMP280;59767;51.344;12.362;2023-07-13T08:58:50;138898.56;;;30.05
71897;BMP280;59767;51.344;12.362;2023-07-13T09:02:25;125231.19;;;31.08
71897;BMP280;59767;51.344;12.362;2023-07-13T09:05:34;116914.88;;;31.75
71897;BMP280;59767;51.344;12.362;2023-07-13T09:15:50;126229.72;;;31.00
71897;BMP280;59767;51.344;12.362;2023-07-13T09:19:00;134894.09;;;30.34
71897;BMP280;59767;51.344;12.362;2023-07-13T09:22:11;144910.72;;;29.63
71897;BMP280;59767;51.344;12.362;2023-07-13T09:25:29;154606.41;;;28.95
71897;BMP280;59767;51.344;12.362;2023-07-13T09:28:39;161970.88;;;28.48
71897;BMP280;59767;51.344;12.362;2023-07-13T09:31:47;163255.47;;;28.36
71897;BMP280;59767;51.344;12.362;2023-07-13T09:34:54;160538.69;;;28.60
71897;BMP280;59767;51.344;12.362;2023-07-13T09:38:19;157367.94;;;28.80
71897;BMP280;59767;51.344;12.362;2023-07-13T09:41:31;162290.66;;;28.46
71897;BMP280;59767;51.344;12.362;2023-07-13T09:48:05;165927.91;;;27.94
71897;BMP280;59767;51.344;12.362;2023-07-13T09:51:13;165534.56;;;28.07
71897;BMP280;59767;51.344;12.362;2023-07-13T09:54:25;165758.44;;;28.04
71897;BMP280;59767;51.344;12.362;2023-07-13T09:57:29;164644.16;;;28.21
71897;BMP280;59767;51.344;12.362;2023-07-13T10:00:56;164422.91;;;28.24
71897;BMP280;59767;51.344;12.362;2023-07-13T10:04:01;165937.13;;;27.98
71897;BMP280;59767;51.344;12.362;2023-07-13T10:07:11;165879.19;;;27.76
71897;BMP280;59767;51.344;12.362;2023-07-13T10:10:33;165893.69;;;27.81
71897;BMP280;59767;51.344;12.362;2023-07-13T10:13:44;165172.00;;;28.13
71897;BMP280;59767;51.344;12.362;2023-07-13T10:16:52;164494.94;;;28.23
71897;BMP280;59767;51.344;12.362;2023-07-13T10:20:04;165805.44;;;27.48
71897;BMP280;59767;51.344;12.362;2023-07-13T10:23:15;165722.50;;;27.16
71897;BMP280;59767;51.344;12.362;2023-07-13T10:26:26;165652.69;;;26.90
71897;BMP280;59767;51.344;12.362;2023-07-13T10:29:36;165600.03;;;26.70
71897;BMP280;59767;51.344;12.362;2023-07-13T10:32:41;165560.59;;;26.55
71897;BMP280;59767;51.344;12.362;2023-07-13T10:35:45;165467.09;;;26.20
71897;BMP280;59767;51.344;12.362;2023-07-13T10:38:52;165447.34;;;26.12
71897;BMP280;59767;51.344;12.362;2023-07-13T10:42:05;165503.91;;;26.34
71897;BMP280;59767;51.344;12.362;2023-07-13T10:45:15;165506.59;;;26.35
71897;BMP280;59767;51.344;12.362;2023-07-13T10:48:21;165490.81;;;26.29
71897;BMP280;59767;51.344;12.362;2023-07-13T10:51:28;165507.94;;;26.35
71897;BMP280;59767;51.344;12.362;2023-07-13T10:54:33;165503.91;;;26.34
71897;BMP280;59767;51.344;12.362;2023-07-13T10:57:42;165514.50;;;26.38
71897;BMP280;59767;51.344;12.362;2023-07-13T11:00:49;165547.38;;;26.50
71897;BMP280;59767;51.344;12.362;2023-07-13T11:03:58;165630.31;;;26.81
71897;BMP280;59767;51.344;12.362;2023-07-13T11:07:11;165651.41;;;26.89
71897;BMP280;59767;51.344;12.362;2023-07-13T11:10:53;165721.16;;;27.16
71897;BMP280;59767;51.344;12.362;2023-07-13T11:14:01;165764.63;;;27.32
71897;BMP280;59767;51.344;12.362;2023-07-13T11:20:40;165834.41;;;27.59
71897;BMP280;59767;51.344;12.362;2023-07-13T11:23:45;165860.75;;;27.69
71897;BMP280;59767;51.344;12.362;2023-07-13T11:26:55;165818.63;;;27.53
71897;BMP280;59767;51.344;12.362;2023-07-13T11:30:25;165733.06;;;27.20
71897;BMP280;59767;51.344;12.362;2023-07-13T11:36:43;165739.63;;;27.23
71897;BMP280;59767;51.344;12.362;2023-07-13T11:39:50;165789.66;;;27.42
71897;BMP280;59767;51.344;12.362;2023-07-13T11:43:02;165806.75;;;27.48
71897;BMP280;59767;51.344;12.362;2023-07-13T11:46:24;165764.63;;;27.32
71897;BMP280;59767;51.344;12.362;2023-07-13T11:49:30;165758.03;;;27.30
71897;BMP280;59767;51.344;12.362;2023-07-13T11:52:37;165747.50;;;27.26
71897;BMP280;59767;51.344;12.362;2023-07-13T11:55:42;165718.53;;;27.15
71897;BMP280;59767;51.344;12.362;2023-07-13T11:58:54;165710.63;;;27.12
71897;BMP280;59767;51.344;12.362;2023-07-13T12:01:59;165737.00;;;27.22
71897;BMP280;59767;51.344;12.362;2023-07-13T12:05:05;165743.53;;;27.24
71897;BMP280;59767;51.344;12.362;2023-07-13T12:08:11;165772.53;;;27.35
71897;BMP280;59767;51.344;12.362;2023-07-13T12:11:26;165789.66;;;27.42
71897;BMP280;59767;51.344;12.362;2023-07-13T12:14:33;165796.22;;;27.44
71897;BMP280;59767;51.344;12.362;2023-07-13T12:17:38;165796.22;;;27.44
71897;BMP280;59767;51.344;12.362;2023-07-13T12:20:42;165822.53;;;27.54
71897;BMP280;59767;51.344;12.362;2023-07-13T12:23:48;165818.63;;;27.53
71897;BMP280;59767;51.344;12.362;2023-07-13T12:27:01;165825.16;;;27.55
71897;BMP280;59767;51.344;12.362;2023-07-13T12:30:24;165859.44;;;27.68
71897;BMP280;59767;51.344;12.362;2023-07-13T12:33:31;165847.56;;;27.64
71897;BMP280;59767;51.344;12.362;2023-07-13T12:36:40;165844.97;;;27.63
71897;BMP280;59767;51.344;12.362;2023-07-13T12:39:47;165814.63;;;27.51
71897;BMP280;59767;51.344;12.362;2023-07-13T12:42:52;165806.75;;;27.48
71897;BMP280;59767;51.344;12.362;2023-07-13T12:45:58;165835.75;;;27.59
71897;BMP280;59767;51.344;12.362;2023-07-13T12:49:06;165870.00;;;27.72
71897;BMP280;59767;51.344;12.362;2023-07-13T12:52:27;165847.56;;;27.64
71897;BMP280;59767;51.344;12.362;2023-07-13T12:55:49;165894.97;;;27.82
71897;BMP280;59767;51.344;12.362;2023-07-13T12:58:58;165927.91;;;27.94
71897;BMP280;59767;51.344;12.362;2023-07-13T13:02:31;165863.34;;;27.70
71897;BMP280;59767;51.344;12.362;2023-07-13T13:05:36;165801.47;;;27.46
71897;BMP280;59767;51.344;12.362;2023-07-13T13:08:42;165765.94;;;27.33
71897;BMP280;59767;51.344;12.362;2023-07-13T13:11:47;165714.59;;;27.13
71897;BMP280;59767;51.344;12.362;2023-07-13T13:14:51;165719.84;;;27.15
71897;BMP280;59767;51.344;12.362;2023-07-13T13:17:57;165711.97;;;27.12
71897;BMP280;59767;51.344;12.362;2023-07-13T13:21:02;165693.50;;;27.05
71897;BMP280;59767;51.344;12.362;2023-07-13T13:24:11;165688.25;;;27.03
71897;BMP280;59767;51.344;12.362;2023-07-13T13:27:18;165661.94;;;26.93
71897;BMP280;59767;51.344;12.362;2023-07-13T13:30:22;165660.59;;;26.93
71897;BMP280;59767;51.344;12.362;2023-07-13T13:33:26;165607.97;;;26.73
71897;BMP280;59767;51.344;12.362;2023-07-13T13:36:30;165557.97;;;26.54
71897;BMP280;59767;51.344;12.362;2023-07-13T13:39:36;165497.38;;;26.31
71897;BMP280;59767;51.344;12.362;2023-07-13T13:42:40;165517.13;;;26.39
71897;BMP280;59767;51.344;12.362;2023-07-13T13:45:45;165560.59;;;26.55
71897;BMP280;59767;51.344;12.362;2023-07-13T13:48:51;165613.19;;;26.75
71897;BMP280;59767;51.344;12.362;2023-07-13T13:51:56;165688.25;;;27.03
71897;BMP280;59767;51.344;12.362;2023-07-13T13:54:59;165714.59;;;27.13
71897;BMP280;59767;51.344;12.362;2023-07-13T13:58:04;165665.91;;;26.95
71897;BMP280;59767;51.344;12.362;2023-07-13T14:01:14;165660.59;;;26.93
71897;BMP280;59767;51.344;12.362;2023-07-13T14:04:21;165663.22;;;26.94
71897;BMP280;59767;51.344;12.362;2023-07-13T14:07:26;165704.09;;;27.09
71897;BMP280;59767;51.344;12.362;2023-07-13T14:10:30;165752.78;;;27.28
71897;BMP280;59767;51.344;12.362;2023-07-13T14:13:37;165722.50;;;27.16
71897;BMP280;59767;51.344;12.362;2023-07-13T14:16:43;165681.69;;;27.01
71897;BMP280;59767;51.344;12.362;2023-07-13T14:19:49;165658.00;;;26.92
71897;BMP280;59767;51.344;12.362;2023-07-13T14:23:01;165686.94;;;27.03
71897;BMP280;59767;51.344;12.362;2023-07-13T14:26:13;165671.13;;;26.97
71897;BMP280;59767;51.344;12.362;2023-07-13T14:29:19;165688.25;;;27.03
71897;BMP280;59767;51.344;12.362;2023-07-13T14:32:27;165658.00;;;26.92
71897;BMP280;59767;51.344;12.362;2023-07-13T14:35:32;165656.66;;;26.91
71897;BMP280;59767;51.344;12.362;2023-07-13T14:38:37;165636.91;;;26.84
71897;BMP280;59767;51.344;12.362;2023-07-13T14:41:41;165607.97;;;26.73
71897;BMP280;59767;51.344;12.362;2023-07-13T14:44:45;165610.56;;;26.74
71897;BMP280;59767;51.344;12.362;2023-07-13T14:47:49;165592.16;;;26.67
71897;BMP280;59767;51.344;12.362;2023-07-13T14:50:56;165582.97;;;26.64
71897;BMP280;59767;51.344;12.362;2023-07-13T14:54:05;165559.25;;;26.55
71897;BMP280;59767;51.344;12.362;2023-07-13T14:57:17;165571.06;;;26.59
71897;BMP280;59767;51.344;12.362;2023-07-13T15:00:25;165597.41;;;26.69
71897;BMP280;59767;51.344;12.362;2023-07-13T15:03:30;165621.09;;;26.78
71897;BMP280;59767;51.344;12.362;2023-07-13T15:06:54;165592.16;;;26.67
71897;BMP280;59767;51.344;12.362;2023-07-13T15:09:58;165565.84;;;26.57
71897;BMP280;59767;51.344;12.362;2023-07-13T15:13:21;165514.50;;;26.38
71897;BMP280;59767;51.344;12.362;2023-07-13T15:16:27;165486.84;;;26.27
71897;BMP280;59767;51.344;12.362;2023-07-13T15:19:31;165489.47;;;26.28
71897;BMP280;59767;51.344;12.362;2023-07-13T15:22:36;165513.16;;;26.37
71897;BMP280;59767;51.344;12.362;2023-07-13T15:25:41;165513.16;;;26.37
71897;BMP280;59767;51.344;12.362;2023-07-13T15:28:46;165519.75;;;26.40
71897;BMP280;59767;51.344;12.362;2023-07-13T15:31:50;165488.13;;;26.28
71897;BMP280;59767;51.344;12.362;2023-07-13T15:34:54;165471.03;;;26.21
71897;BMP280;59767;51.344;12.362;2023-07-13T15:37:58;165507.94;;;26.35
71897;BMP280;59767;51.344;12.362;2023-07-13T15:41:10;165552.66;;;26.52
71897;BMP280;59767;51.344;12.362;2023-07-13T15:44:24;165542.13;;;26.48
71897;BMP280;59767;51.344;12.362;2023-07-13T15:47:29;165534.25;;;26.45
71897;BMP280;59767;51.344;12.362;2023-07-13T15:50:42;165518.47;;;26.39
71897;BMP280;59767;51.344;12.362;2023-07-13T15:53:47;165518.47;;;26.39
71897;BMP280;59767;51.344;12.362;2023-07-13T15:56:54;165542.13;;;26.48
71897;BMP280;59767;51.344;12.362;2023-07-13T15:59:58;165553.94;;;26.53
71897;BMP280;59767;51.344;12.362;2023-07-13T16:03:03;165600.03;;;26.70
71897;BMP280;59767;51.344;12.362;2023-07-13T16:06:22;165559.25;;;26.55
71897;BMP280;59767;51.344;12.362;2023-07-13T16:09:27;165555.28;;;26.53
71897;BMP280;59767;51.344;12.362;2023-07-13T16:12:31;165546.03;;;26.50
71897;BMP280;59767;51.344;12.362;2023-07-13T16:15:37;165538.16;;;26.47
71897;BMP280;59767;51.344;12.362;2023-07-13T16:18:41;165515.81;;;26.38
71897;BMP280;59767;51.344;12.362;2023-07-13T16:21:48;165463.13;;;26.18
71897;BMP280;59767;51.344;12.362;2023-07-13T16:24:54;165463.13;;;26.18
71897;BMP280;59767;51.344;12.362;2023-07-13T16:28:00;165484.22;;;26.26
71897;BMP280;59767;51.344;12.362;2023-07-13T16:31:04;165489.47;;;26.28
71897;BMP280;59767;51.344;12.362;2023-07-13T16:34:11;165457.88;;;26.16
71897;BMP280;59767;51.344;12.362;2023-07-13T16:37:21;165446.00;;;26.12
71897;BMP280;59767;51.344;12.362;2023-07-13T16:40:29;165444.72;;;26.11
71897;BMP280;59767;51.344;12.362;2023-07-13T16:43:33;165447.34;;;26.12
71897;BMP280;59767;51.344;12.362;2023-07-13T16:46:37;165440.81;;;26.10
71897;BMP280;59767;51.344;12.362;2023-07-13T16:49:43;165444.72;;;26.11
71897;BMP280;59767;51.344;12.362;2023-07-13T16:52:49;165409.19;;;25.98
71897;BMP280;59767;51.344;12.362;2023-07-13T16:55:54;165397.34;;;25.93
71897;BMP280;59767;51.344;12.362;2023-07-13T16:59:11;165382.84;;;25.88
71897;BMP280;59767;51.344;12.362;2023-07-13T17:05:29;165365.78;;;25.81
71897;BMP280;59767;51.344;12.362;2023-07-13T17:08:33;165374.97;;;25.85
71897;BMP280;59767;51.344;12.362;2023-07-13T17:11:42;165372.34;;;25.84
71897;BMP280;59767;51.344;12.362;2023-07-13T17:14:50;165353.88;;;25.77
71897;BMP280;59767;51.344;12.362;2023-07-13T17:17:55;165364.47;;;25.81
71897;BMP280;59767;51.344;12.362;2023-07-13T17:21:15;165315.75;;;25.62
71897;BMP280;59767;51.344;12.362;2023-07-13T17:24:21;165294.72;;;25.54
71897;BMP280;59767;51.344;12.362;2023-07-13T17:27:28;165282.81;;;25.50
71897;BMP280;59767;51.344;12.362;2023-07-13T17:30:32;165259.16;;;25.41
71897;BMP280;59767;51.344;12.362;2023-07-13T17:33:38;165255.19;;;25.39
71897;BMP280;59767;51.344;12.362;2023-07-13T17:36:44;165256.53;;;25.40
71897;BMP280;59767;51.344;12.362;2023-07-13T17:39:48;165257.81;;;25.40
71897;BMP280;59767;51.344;12.362;2023-07-13T17:42:53;165256.53;;;25.40
71897;BMP280;59767;51.344;12.362;2023-07-13T17:45:59;165231.53;;;25.30
71897;BMP280;59767;51.344;12.362;2023-07-13T17:49:04;165203.84;;;25.20